sensor_id;sensor_type;location;lat;lon;timestamp;pressure;altitude;pressure_sealevel;temperature;humidity
74403;BME280;62837;51.082;13.744;2022-11-20T00:02:28;100109.77;;;-3.47;72.18
74403;BME280;62837;51.082;13.744;2022-11-20T00:04:59;100110.56;;;-3.41;72.09
74403;BME280;62837;51.082;13.744;2022-11-20T00:07:30;100114.63;;;-3.36;71.86
74403;BME280;62837;51.082;13.744;2022-11-20T00:10:01;100113.91;;;-3.33;71.65
74403;BME280;62837;51.082;13.744;2022-11-20T00:12:31;100114.40;;;-3.30;71.98
74403;BME280;62837;51.082;13.744;2022-11-20T00:15:03;100107.90;;;-3.28;71.74
74403;BME280;62837;51.082;13.744;2022-11-20T00:17:34;100103.85;;;-3.27;71.99
74403;BME280;62837;51.082;13.744;2022-11-20T00:20:06;100104.76;;;-3.27;71.97
74403;BME280;62837;51.082;13.744;2022-11-20T00:22:37;100102.97;;;-3.24;72.41
74403;BME280;62837;51.082;13.744;2022-11-20T00:25:08;100106.91;;;-3.24;72.22
74403;BME280;62837;51.082;13.744;2022-11-20T00:27:39;100109.23;;;-3.22;72.31
74403;BME280;62837;51.082;13.744;2022-11-20T00:30:11;100108.05;;;-3.25;72.15
74403;BME280;62837;51.082;13.744;2022-11-20T00:32:43;100108.61;;;-3.28;71.99
74403;BME280;62837;51.082;13.744;2022-11-20T00:35:14;100113.94;;;-3.32;71.53
74403;BME280;62837;51.082;13.744;2022-11-20T00:37:45;100112.39;;;-3.39;71.67
74403;BME280;62837;51.082;13.744;2022-11-20T00:40:16;100112.02;;;-3.45;71.57
74403;BME280;62837;51.082;13.744;2022-11-20T00:42:46;100116.16;;;-3.48;71.48
74403;BME280;62837;51.082;13.744;2022-11-20T00:45:17;100119.63;;;-3.47;71.40
74403;BME280;62837;51.082;13.744;2022-11-20T00:47:48;100124.24;;;-3.43;71.40
74403;BME280;62837;51.082;13.744;2022-11-20T00:50:18;100125.64;;;-3.42;71.42
74403;BME280;62837;51.082;13.744;2022-11-20T00:52:49;100129.30;;;-3.42;71.15
74403;BME280;62837;51.082;13.744;2022-11-20T00:55:20;100131.91;;;-3.45;71.30
74403;BME280;62837;51.082;13.744;2022-11-20T00:57:50;100132.92;;;-3.48;71.37
74403;BME280;62837;51.082;13.744;2022-11-20T01:00:21;100132.45;;;-3.51;71.32
74403;BME280;62837;51.082;13.744;2022-11-20T01:02:52;100131.02;;;-3.54;71.34
74403;BME280;62837;51.082;13.744;2022-11-20T01:05:22;100131.96;;;-3.56;71.32
74403;BME280;62837;51.082;13.744;2022-11-20T01:07:53;100123.45;;;-3.62;71.43
74403;BME280;62837;51.082;13.744;2022-11-20T01:10:24;100129.28;;;-3.58;71.82
74403;BME280;62837;51.082;13.744;2022-11-20T01:12:55;100129.60;;;-3.60;71.43
74403;BME280;62837;51.082;13.744;2022-11-20T01:15:40;100130.02;;;-3.64;71.72
74403;BME280;62837;51.082;13.744;2022-11-20T01:18:11;100128.54;;;-3.67;71.85
74403;BME280;62837;51.082;13.744;2022-11-20T01:20:41;100124.42;;;-3.68;71.94
74403;BME280;62837;51.082;13.744;2022-11-20T01:23:12;100122.89;;;-3.64;71.42
74403;BME280;62837;51.082;13.744;2022-11-20T01:25:43;100122.88;;;-3.60;71.48
74403;BME280;62837;51.082;13.744;2022-11-20T01:28:13;100121.38;;;-3.58;71.50
74403;BME280;62837;51.082;13.744;2022-11-20T01:30:44;100123.27;;;-3.57;71.35
74403;BME280;62837;51.082;13.744;2022-11-20T01:33:15;100119.41;;;-3.59;71.59
74403;BME280;62837;51.082;13.744;2022-11-20T01:35:45;100117.77;;;-3.62;71.16
74403;BME280;62837;51.082;13.744;2022-11-20T01:38:17;100120.60;;;-3.68;71.49
74403;BME280;62837;51.082;13.744;2022-11-20T01:40:56;100119.26;;;-3.78;71.37
74403;BME280;62837;51.082;13.744;2022-11-20T01:43:27;100115.43;;;-3.88;71.97
74403;BME280;62837;51.082;13.744;2022-11-20T01:46:14;100117.05;;;-3.92;71.78
74403;BME280;62837;51.082;13.744;2022-11-20T01:48:51;100116.30;;;-3.96;72.16
74403;BME280;62837;51.082;13.744;2022-11-20T01:51:28;100112.09;;;-4.05;72.10
74403;BME280;62837;51.082;13.744;2022-11-20T01:54:03;100109.91;;;-4.08;72.51
74403;BME280;62837;51.082;13.744;2022-11-20T01:56:38;100112.48;;;-4.00;72.29
74403;BME280;62837;51.082;13.744;2022-11-20T01:59:13;100107.66;;;-3.96;72.32
74403;BME280;62837;51.082;13.744;2022-11-20T02:01:46;100107.95;;;-3.92;72.01
74403;BME280;62837;51.082;13.744;2022-11-20T02:04:18;100104.02;;;-3.88;72.04
74403;BME280;62837;51.082;13.744;2022-11-20T02:06:49;100097.80;;;-3.89;72.37
74403;BME280;62837;51.082;13.744;2022-11-20T02:09:22;100097.39;;;-3.87;72.28
74403;BME280;62837;51.082;13.744;2022-11-20T02:11:53;100098.05;;;-3.88;72.26
74403;BME280;62837;51.082;13.744;2022-11-20T02:14:25;100102.29;;;-3.93;71.91
74403;BME280;62837;51.082;13.744;2022-11-20T02:16:56;100102.27;;;-3.97;72.49
74403;BME280;62837;51.082;13.744;2022-11-20T02:19:29;100101.99;;;-3.97;72.49
74403;BME280;62837;51.082;13.744;2022-11-20T02:22:06;100096.89;;;-3.97;72.43
74403;BME280;62837;51.082;13.744;2022-11-20T02:24:39;100092.05;;;-3.97;72.35
74403;BME280;62837;51.082;13.744;2022-11-20T02:27:11;100088.16;;;-3.96;72.76
74403;BME280;62837;51.082;13.744;2022-11-20T02:29:46;100085.92;;;-3.98;72.20
74403;BME280;62837;51.082;13.744;2022-11-20T02:32:23;100088.52;;;-3.99;71.83
74403;BME280;62837;51.082;13.744;2022-11-20T02:34:54;100088.16;;;-4.05;71.69
74403;BME280;62837;51.082;13.744;2022-11-20T02:37:32;100090.97;;;-4.14;71.73
74403;BME280;62837;51.082;13.744;2022-11-20T02:40:05;100091.94;;;-4.23;71.76
74403;BME280;62837;51.082;13.744;2022-11-20T02:42:36;100089.84;;;-4.29;72.13
74403;BME280;62837;51.082;13.744;2022-11-20T02:45:09;100086.73;;;-4.35;71.97
74403;BME280;62837;51.082;13.744;2022-11-20T02:47:40;100087.89;;;-4.39;72.42
74403;BME280;62837;51.082;13.744;2022-11-20T02:50:11;100086.70;;;-4.38;72.42
74403;BME280;62837;51.082;13.744;2022-11-20T02:52:42;100090.13;;;-4.39;72.12
74403;BME280;62837;51.082;13.744;2022-11-20T02:55:13;100088.19;;;-4.45;72.32
74403;BME280;62837;51.082;13.744;2022-11-20T02:57:43;100093.39;;;-4.50;72.28
74403;BME280;62837;51.082;13.744;2022-11-20T03:00:15;100087.27;;;-4.48;72.44
74403;BME280;62837;51.082;13.744;2022-11-20T03:02:46;100083.76;;;-4.44;72.73
74403;BME280;62837;51.082;13.744;2022-11-20T03:05:17;100076.17;;;-4.42;72.90
74403;BME280;62837;51.082;13.744;2022-11-20T03:07:48;100083.89;;;-4.34;72.41
74403;BME280;62837;51.082;13.744;2022-11-20T03:10:18;100081.54;;;-4.35;72.05
74403;BME280;62837;51.082;13.744;2022-11-20T03:12:54;100086.20;;;-4.39;72.89
74403;BME280;62837;51.082;13.744;2022-11-20T03:15:25;100084.48;;;-4.35;72.79
74403;BME280;62837;51.082;13.744;2022-11-20T03:17:56;100079.56;;;-4.32;72.18
74403;BME280;62837;51.082;13.744;2022-11-20T03:20:27;100078.37;;;-4.31;72.57
74403;BME280;62837;51.082;13.744;2022-11-20T03:22:57;100077.60;;;-4.30;72.48
74403;BME280;62837;51.082;13.744;2022-11-20T03:25:28;100074.54;;;-4.32;72.12
74403;BME280;62837;51.082;13.744;2022-11-20T03:27:59;100072.98;;;-4.34;71.53
74403;BME280;62837;51.082;13.744;2022-11-20T03:30:30;100064.33;;;-4.38;71.78
74403;BME280;62837;51.082;13.744;2022-11-20T03:33:01;100068.06;;;-4.40;71.57
74403;BME280;62837;51.082;13.744;2022-11-20T03:35:31;100064.79;;;-4.47;71.51
74403;BME280;62837;51.082;13.744;2022-11-20T03:38:02;100068.11;;;-4.56;71.46
74403;BME280;62837;51.082;13.744;2022-11-20T03:40:35;100059.80;;;-4.58;71.68
74403;BME280;62837;51.082;13.744;2022-11-20T03:43:05;100066.32;;;-4.50;71.61
74403;BME280;62837;51.082;13.744;2022-11-20T03:45:36;100065.31;;;-4.44;71.80
74403;BME280;62837;51.082;13.744;2022-11-20T03:48:07;100068.09;;;-4.40;71.71
74403;BME280;62837;51.082;13.744;2022-11-20T03:50:38;100069.80;;;-4.39;71.57
74403;BME280;62837;51.082;13.744;2022-11-20T03:53:09;100073.45;;;-4.40;71.33
74403;BME280;62837;51.082;13.744;2022-11-20T03:55:40;100076.35;;;-4.42;71.50
74403;BME280;62837;51.082;13.744;2022-11-20T03:58:11;100076.88;;;-4.43;71.24
74403;BME280;62837;51.082;13.744;2022-11-20T04:00:42;100077.02;;;-4.46;71.28
74403;BME280;62837;51.082;13.744;2022-11-20T04:03:13;100074.95;;;-4.48;71.10
74403;BME280;62837;51.082;13.744;2022-11-20T04:05:44;100072.00;;;-4.51;71.41
74403;BME280;62837;51.082;13.744;2022-11-20T04:08:15;100068.67;;;-4.53;71.39
74403;BME280;62837;51.082;13.744;2022-11-20T04:10:46;100068.15;;;-4.55;71.70
74403;BME280;62837;51.082;13.744;2022-11-20T04:13:16;100063.62;;;-4.57;71.38
74403;BME280;62837;51.082;13.744;2022-11-20T04:15:47;100057.86;;;-4.62;71.36
74403;BME280;62837;51.082;13.744;2022-11-20T04:18:18;100057.53;;;-4.67;71.31
74403;BME280;62837;51.082;13.744;2022-11-20T04:20:49;100056.61;;;-4.70;71.50
74403;BME280;62837;51.082;13.744;2022-11-20T04:23:19;100053.40;;;-4.65;71.69
74403;BME280;62837;51.082;13.744;2022-11-20T04:26:02;100048.71;;;-4.60;71.44
74403;BME280;62837;51.082;13.744;2022-11-20T04:28:33;100045.21;;;-4.56;71.44
74403;BME280;62837;51.082;13.744;2022-11-20T04:31:06;100046.92;;;-4.53;71.51
74403;BME280;62837;51.082;13.744;2022-11-20T04:33:37;100044.86;;;-4.51;71.48
74403;BME280;62837;51.082;13.744;2022-11-20T04:36:12;100039.00;;;-4.52;71.65
74403;BME280;62837;51.082;13.744;2022-11-20T04:38:44;100036.88;;;-4.52;71.81
74403;BME280;62837;51.082;13.744;2022-11-20T04:41:17;100031.20;;;-4.54;71.45
74403;BME280;62837;51.082;13.744;2022-11-20T04:43:49;100031.05;;;-4.62;71.57
74403;BME280;62837;51.082;13.744;2022-11-20T04:46:20;100030.55;;;-4.65;72.42
74403;BME280;62837;51.082;13.744;2022-11-20T04:48:51;100033.10;;;-4.69;72.03
74403;BME280;62837;51.082;13.744;2022-11-20T04:51:23;100031.98;;;-4.68;72.33
74403;BME280;62837;51.082;13.744;2022-11-20T04:53:53;100033.94;;;-4.68;72.17
74403;BME280;62837;51.082;13.744;2022-11-20T04:56:24;100032.97;;;-4.69;72.46
74403;BME280;62837;51.082;13.744;2022-11-20T04:58:55;100037.81;;;-4.68;72.31
74403;BME280;62837;51.082;13.744;2022-11-20T05:01:26;100045.15;;;-4.65;72.80
74403;BME280;62837;51.082;13.744;2022-11-20T05:03:56;100046.13;;;-4.61;71.88
74403;BME280;62837;51.082;13.744;2022-11-20T05:06:27;100045.05;;;-4.64;71.41
74403;BME280;62837;51.082;13.744;2022-11-20T05:08:58;100045.48;;;-4.74;71.46
74403;BME280;62837;51.082;13.744;2022-11-20T05:11:29;100049.91;;;-4.85;71.44
74403;BME280;62837;51.082;13.744;2022-11-20T05:14:00;100054.46;;;-4.96;71.60
74403;BME280;62837;51.082;13.744;2022-11-20T05:16:31;100056.52;;;-5.04;72.20
74403;BME280;62837;51.082;13.744;2022-11-20T05:19:04;100054.23;;;-5.07;72.31
74403;BME280;62837;51.082;13.744;2022-11-20T05:21:35;100046.99;;;-5.07;72.11
74403;BME280;62837;51.082;13.744;2022-11-20T05:24:06;100041.27;;;-5.12;72.03
74403;BME280;62837;51.082;13.744;2022-11-20T05:26:37;100041.13;;;-5.16;72.44
74403;BME280;62837;51.082;13.744;2022-11-20T05:29:09;100049.14;;;-5.15;72.63
74403;BME280;62837;51.082;13.744;2022-11-20T05:31:40;100048.92;;;-5.13;72.28
74403;BME280;62837;51.082;13.744;2022-11-20T05:34:11;100046.70;;;-5.09;72.50
74403;BME280;62837;51.082;13.744;2022-11-20T05:36:41;100047.90;;;-5.04;72.39
74403;BME280;62837;51.082;13.744;2022-11-20T05:39:12;100044.35;;;-5.01;72.18
74403;BME280;62837;51.082;13.744;2022-11-20T05:41:43;100039.77;;;-5.00;72.47
74403;BME280;62837;51.082;13.744;2022-11-20T05:44:14;100037.05;;;-4.96;72.48
74403;BME280;62837;51.082;13.744;2022-11-20T05:46:45;100033.12;;;-4.97;71.85
74403;BME280;62837;51.082;13.744;2022-11-20T05:49:15;100031.58;;;-5.00;72.04
74403;BME280;62837;51.082;13.744;2022-11-20T05:51:46;100037.78;;;-5.01;72.31
74403;BME280;62837;51.082;13.744;2022-11-20T05:54:17;100035.66;;;-5.02;72.43
74403;BME280;62837;51.082;13.744;2022-11-20T05:56:48;100034.63;;;-5.05;72.10
74403;BME280;62837;51.082;13.744;2022-11-20T05:59:19;100029.84;;;-5.07;72.23
74403;BME280;62837;51.082;13.744;2022-11-20T06:01:50;100034.39;;;-5.06;71.99
74403;BME280;62837;51.082;13.744;2022-11-20T06:04:20;100031.58;;;-5.07;72.35
74403;BME280;62837;51.082;13.744;2022-11-20T06:06:51;100031.98;;;-5.07;72.00
74403;BME280;62837;51.082;13.744;2022-11-20T06:09:22;100029.61;;;-5.03;71.94
74403;BME280;62837;51.082;13.744;2022-11-20T06:11:52;100026.55;;;-4.97;71.92
74403;BME280;62837;51.082;13.744;2022-11-20T06:14:23;100025.39;;;-4.96;71.41
74403;BME280;62837;51.082;13.744;2022-11-20T06:16:54;100021.92;;;-5.02;71.47
74403;BME280;62837;51.082;13.744;2022-11-20T06:19:24;100018.18;;;-5.10;71.48
74403;BME280;62837;51.082;13.744;2022-11-20T06:21:55;100020.46;;;-5.19;71.91
74403;BME280;62837;51.082;13.744;2022-11-20T06:24:26;100016.52;;;-5.24;72.75
74403;BME280;62837;51.082;13.744;2022-11-20T06:26:56;100016.48;;;-4.76;82.96
74403;BME280;62837;51.082;13.744;2022-11-20T06:29:27;100012.21;;;-3.24;89.89
74403;BME280;62837;51.082;13.744;2022-11-20T06:32:02;100003.77;;;-3.22;78.89
74403;BME280;62837;51.082;13.744;2022-11-20T06:34:33;100004.22;;;-3.39;74.87
74403;BME280;62837;51.082;13.744;2022-11-20T06:37:04;100009.92;;;-3.59;73.44
74403;BME280;62837;51.082;13.744;2022-11-20T06:39:35;100015.34;;;-3.75;72.18
74403;BME280;62837;51.082;13.744;2022-11-20T06:42:05;100013.70;;;-3.93;71.29
74403;BME280;62837;51.082;13.744;2022-11-20T06:44:36;100014.80;;;-4.12;71.01
74403;BME280;62837;51.082;13.744;2022-11-20T06:47:07;100020.51;;;-4.22;71.15
74403;BME280;62837;51.082;13.744;2022-11-20T06:49:37;100016.51;;;-4.31;70.92
74403;BME280;62837;51.082;13.744;2022-11-20T06:52:08;100010.70;;;-4.40;71.27
74403;BME280;62837;51.082;13.744;2022-11-20T06:54:39;100006.26;;;-4.45;71.54
74403;BME280;62837;51.082;13.744;2022-11-20T06:57:09;100005.45;;;-4.51;71.28
74403;BME280;62837;51.082;13.744;2022-11-20T06:59:40;100004.95;;;-4.57;71.38
74403;BME280;62837;51.082;13.744;2022-11-20T07:02:12;99999.91;;;-4.68;71.40
74403;BME280;62837;51.082;13.744;2022-11-20T07:04:43;100000.91;;;-4.74;71.41
74403;BME280;62837;51.082;13.744;2022-11-20T07:07:13;99998.17;;;-4.78;71.64
74403;BME280;62837;51.082;13.744;2022-11-20T07:09:44;99994.70;;;-4.81;71.96
74403;BME280;62837;51.082;13.744;2022-11-20T07:12:15;100006.08;;;-4.69;71.55
74403;BME280;62837;51.082;13.744;2022-11-20T07:14:46;100003.13;;;-4.55;71.81
74403;BME280;62837;51.082;13.744;2022-11-20T07:17:16;100003.66;;;-4.33;71.81
74403;BME280;62837;51.082;13.744;2022-11-20T07:19:47;99999.11;;;-4.11;71.61
74403;BME280;62837;51.082;13.744;2022-11-20T07:22:18;99999.61;;;-3.87;70.90
74403;BME280;62837;51.082;13.744;2022-11-20T07:24:51;99997.95;;;-3.64;70.82
74403;BME280;62837;51.082;13.744;2022-11-20T07:27:21;99994.55;;;-3.42;70.79
74403;BME280;62837;51.082;13.744;2022-11-20T07:29:52;99990.55;;;-3.19;70.41
74403;BME280;62837;51.082;13.744;2022-11-20T07:32:24;99988.80;;;-3.00;69.51
74403;BME280;62837;51.082;13.744;2022-11-20T07:34:54;99984.06;;;-2.95;69.13
74403;BME280;62837;51.082;13.744;2022-11-20T07:37:25;99991.96;;;-2.79;69.98
74403;BME280;62837;51.082;13.744;2022-11-20T07:39:56;99992.27;;;-2.51;69.54
74403;BME280;62837;51.082;13.744;2022-11-20T07:42:26;99983.19;;;-2.26;69.26
74403;BME280;62837;51.082;13.744;2022-11-20T07:44:58;99982.52;;;-1.97;68.78
74403;BME280;62837;51.082;13.744;2022-11-20T07:47:28;99979.29;;;-1.74;68.16
74403;BME280;62837;51.082;13.744;2022-11-20T07:49:59;99983.41;;;-1.64;67.33
74403;BME280;62837;51.082;13.744;2022-11-20T07:52:30;99984.88;;;-1.52;68.17
74403;BME280;62837;51.082;13.744;2022-11-20T07:55:01;99976.77;;;-1.42;66.98
74403;BME280;62837;51.082;13.744;2022-11-20T07:57:31;99972.03;;;-1.38;66.66
74403;BME280;62837;51.082;13.744;2022-11-20T08:00:03;99974.80;;;-1.35;66.51
74403;BME280;62837;51.082;13.744;2022-11-20T08:02:54;99975.09;;;-1.26;67.32
74403;BME280;62837;51.082;13.744;2022-11-20T08:05:25;99974.98;;;-1.03;68.24
74403;BME280;62837;51.082;13.744;2022-11-20T08:07:55;99964.29;;;-0.74;68.18
74403;BME280;62837;51.082;13.744;2022-11-20T08:10:26;99964.86;;;-0.51;67.12
74403;BME280;62837;51.082;13.744;2022-11-20T08:12:57;99965.11;;;-0.29;66.65
74403;BME280;62837;51.082;13.744;2022-11-20T08:15:49;99966.55;;;-0.02;66.04
74403;BME280;62837;51.082;13.744;2022-11-20T08:18:21;99967.42;;;0.08;64.82
74403;BME280;62837;51.082;13.744;2022-11-20T08:21:00;99970.70;;;0.17;65.52
74403;BME280;62837;51.082;13.744;2022-11-20T08:23:31;99962.94;;;0.33;65.40
74403;BME280;62837;51.082;13.744;2022-11-20T08:26:02;99961.77;;;0.47;65.14
74403;BME280;62837;51.082;13.744;2022-11-20T08:28:33;99961.55;;;0.61;64.71
74403;BME280;62837;51.082;13.744;2022-11-20T08:31:04;99959.87;;;0.72;64.70
74403;BME280;62837;51.082;13.744;2022-11-20T08:33:35;99956.67;;;0.91;65.58
74403;BME280;62837;51.082;13.744;2022-11-20T08:36:07;99954.98;;;1.09;63.76
74403;BME280;62837;51.082;13.744;2022-11-20T08:38:38;99958.36;;;1.17;64.11
74403;BME280;62837;51.082;13.744;2022-11-20T08:41:09;99956.68;;;1.32;64.11
74403;BME280;62837;51.082;13.744;2022-11-20T08:43:57;99956.45;;;1.47;63.91
74403;BME280;62837;51.082;13.744;2022-11-20T08:46:33;99951.46;;;1.59;64.20
74403;BME280;62837;51.082;13.744;2022-11-20T08:49:05;99952.44;;;1.73;63.19
74403;BME280;62837;51.082;13.744;2022-11-20T08:51:36;99948.22;;;1.76;62.76
74403;BME280;62837;51.082;13.744;2022-11-20T08:54:08;99947.99;;;1.92;62.95
74403;BME280;62837;51.082;13.744;2022-11-20T08:56:39;99941.19;;;2.14;62.86
74403;BME280;62837;51.082;13.744;2022-11-20T08:59:09;99934.06;;;2.30;61.98
74403;BME280;62837;51.082;13.744;2022-11-20T09:02:03;99927.96;;;2.41;61.88
74403;BME280;62837;51.082;13.744;2022-11-20T09:04:33;99925.41;;;2.56;62.12
74403;BME280;62837;51.082;13.744;2022-11-20T09:07:04;99919.63;;;2.70;61.88
74403;BME280;62837;51.082;13.744;2022-11-20T09:09:35;99912.13;;;2.80;60.84
74403;BME280;62837;51.082;13.744;2022-11-20T09:12:06;99908.17;;;2.78;59.01
74403;BME280;62837;51.082;13.744;2022-11-20T09:14:37;99903.98;;;2.58;59.66
74403;BME280;62837;51.082;13.744;2022-11-20T09:17:07;99903.55;;;2.60;61.15
74403;BME280;62837;51.082;13.744;2022-11-20T09:19:42;99903.98;;;2.62;60.04
74403;BME280;62837;51.082;13.744;2022-11-20T09:22:14;99898.31;;;2.61;59.76
74403;BME280;62837;51.082;13.744;2022-11-20T09:24:45;99904.83;;;2.63;59.85
74403;BME280;62837;51.082;13.744;2022-11-20T09:27:16;99907.00;;;2.62;60.21
74403;BME280;62837;51.082;13.744;2022-11-20T09:29:50;99898.65;;;2.68;60.72
74403;BME280;62837;51.082;13.744;2022-11-20T09:32:21;99896.64;;;2.79;60.34
74403;BME280;62837;51.082;13.744;2022-11-20T09:34:52;99898.02;;;2.78;60.58
74403;BME280;62837;51.082;13.744;2022-11-20T09:37:23;99900.71;;;2.87;60.84
74403;BME280;62837;51.082;13.744;2022-11-20T09:39:54;99906.32;;;2.95;59.99
74403;BME280;62837;51.082;13.744;2022-11-20T09:42:39;99901.82;;;3.03;59.39
74403;BME280;62837;51.082;13.744;2022-11-20T09:45:24;99905.75;;;2.93;58.94
74403;BME280;62837;51.082;13.744;2022-11-20T09:48:06;99907.58;;;2.96;59.74
74403;BME280;62837;51.082;13.744;2022-11-20T09:50:57;99902.78;;;3.05;59.20
74403;BME280;62837;51.082;13.744;2022-11-20T09:53:41;99894.21;;;3.14;58.50
74403;BME280;62837;51.082;13.744;2022-11-20T09:56:18;99892.66;;;3.10;56.88
74403;BME280;62837;51.082;13.744;2022-11-20T09:58:53;99891.23;;;2.96;58.14
74403;BME280;62837;51.082;13.744;2022-11-20T10:01:29;99895.09;;;2.99;59.22
74403;BME280;62837;51.082;13.744;2022-11-20T10:04:04;99887.96;;;3.08;58.97
74403;BME280;62837;51.082;13.744;2022-11-20T10:06:47;99882.66;;;3.17;58.80
74403;BME280;62837;51.082;13.744;2022-11-20T10:09:40;99883.78;;;3.21;57.83
74403;BME280;62837;51.082;13.744;2022-11-20T10:12:19;99880.69;;;3.18;58.03
74403;BME280;62837;51.082;13.744;2022-11-20T10:15:06;99879.76;;;3.13;57.92
74403;BME280;62837;51.082;13.744;2022-11-20T10:18:11;99877.54;;;3.10;58.19
74403;BME280;62837;51.082;13.744;2022-11-20T10:20:48;99880.00;;;3.10;58.66
74403;BME280;62837;51.082;13.744;2022-11-20T10:23:48;99871.63;;;3.13;58.22
74403;BME280;62837;51.082;13.744;2022-11-20T10:26:25;99866.27;;;3.12;58.59
74403;BME280;62837;51.082;13.744;2022-11-20T10:29:03;99856.91;;;3.07;57.12
74403;BME280;62837;51.082;13.744;2022-11-20T10:31:42;99829.11;;;2.79;57.53
74403;BME280;62837;51.082;13.744;2022-11-20T10:34:20;99851.05;;;2.95;57.93
74403;BME280;62837;51.082;13.744;2022-11-20T10:36:56;99854.42;;;2.90;58.33
74403;BME280;62837;51.082;13.744;2022-11-20T10:39:36;99855.35;;;2.90;58.41
74403;BME280;62837;51.082;13.744;2022-11-20T10:42:20;99857.02;;;2.91;58.00
74403;BME280;62837;51.082;13.744;2022-11-20T10:45:01;99859.23;;;2.92;58.22
74403;BME280;62837;51.082;13.744;2022-11-20T10:47:35;99863.23;;;2.97;58.05
74403;BME280;62837;51.082;13.744;2022-11-20T10:50:11;99862.16;;;2.97;57.79
74403;BME280;62837;51.082;13.744;2022-11-20T10:52:59;99861.67;;;2.85;58.08
74403;BME280;62837;51.082;13.744;2022-11-20T10:55:43;99860.02;;;2.72;57.99
74403;BME280;62837;51.082;13.744;2022-11-20T10:58:24;99856.72;;;2.62;58.78
74403;BME280;62837;51.082;13.744;2022-11-20T11:01:06;99852.20;;;2.52;58.56
74403;BME280;62837;51.082;13.744;2022-11-20T11:03:44;99848.13;;;2.38;59.23
74403;BME280;62837;51.082;13.744;2022-11-20T11:06:20;99855.08;;;2.29;59.21
74403;BME280;62837;51.082;13.744;2022-11-20T11:08:55;99853.01;;;2.19;59.34
74403;BME280;62837;51.082;13.744;2022-11-20T11:11:30;99846.70;;;2.14;60.29
74403;BME280;62837;51.082;13.744;2022-11-20T11:14:13;99840.58;;;2.17;60.47
74403;BME280;62837;51.082;13.744;2022-11-20T11:16:52;99836.88;;;2.23;60.92
74403;BME280;62837;51.082;13.744;2022-11-20T11:19:26;99835.19;;;2.23;60.54
74403;BME280;62837;51.082;13.744;2022-11-20T11:21:58;99831.00;;;2.21;61.62
74403;BME280;62837;51.082;13.744;2022-11-20T11:24:31;99831.90;;;2.19;61.76
74403;BME280;62837;51.082;13.744;2022-11-20T11:27:14;99828.08;;;2.15;61.72
74403;BME280;62837;51.082;13.744;2022-11-20T11:29:48;99819.34;;;2.13;62.80
74403;BME280;62837;51.082;13.744;2022-11-20T11:32:20;99814.81;;;2.14;62.35
74403;BME280;62837;51.082;13.744;2022-11-20T11:35:02;99812.04;;;2.12;62.07
74403;BME280;62837;51.082;13.744;2022-11-20T11:37:39;99805.74;;;2.12;62.65
74403;BME280;62837;51.082;13.744;2022-11-20T11:40:13;99805.21;;;2.17;62.95
74403;BME280;62837;51.082;13.744;2022-11-20T11:42:56;99804.21;;;2.22;62.85
74403;BME280;62837;51.082;13.744;2022-11-20T11:45:28;99800.59;;;2.28;63.06
74403;BME280;62837;51.082;13.744;2022-11-20T11:48:01;99794.29;;;2.37;63.13
74403;BME280;62837;51.082;13.744;2022-11-20T11:50:34;99789.86;;;2.44;63.11
74403;BME280;62837;51.082;13.744;2022-11-20T11:53:12;99789.33;;;2.53;63.69
74403;BME280;62837;51.082;13.744;2022-11-20T11:55:47;99787.71;;;2.55;63.26
74403;BME280;62837;51.082;13.744;2022-11-20T11:58:38;99777.02;;;2.55;63.15
74403;BME280;62837;51.082;13.744;2022-11-20T12:01:24;99779.15;;;2.56;63.47
74403;BME280;62837;51.082;13.744;2022-11-20T12:04:07;99776.83;;;2.54;63.56
74403;BME280;62837;51.082;13.744;2022-11-20T12:06:45;99773.14;;;2.52;63.38
74403;BME280;62837;51.082;13.744;2022-11-20T12:09:20;99767.30;;;2.46;62.98
74403;BME280;62837;51.082;13.744;2022-11-20T12:11:58;99765.05;;;2.39;62.81
74403;BME280;62837;51.082;13.744;2022-11-20T12:14:36;99762.93;;;2.33;63.13
74403;BME280;62837;51.082;13.744;2022-11-20T12:17:12;99760.53;;;2.27;63.50
74403;BME280;62837;51.082;13.744;2022-11-20T12:19:44;99760.32;;;2.23;63.82
74403;BME280;62837;51.082;13.744;2022-11-20T12:22:22;99760.61;;;2.22;63.83
74403;BME280;62837;51.082;13.744;2022-11-20T12:24:58;99758.66;;;2.19;64.09
74403;BME280;62837;51.082;13.744;2022-11-20T12:28:07;99764.78;;;2.22;64.21
74403;BME280;62837;51.082;13.744;2022-11-20T12:30:52;99769.12;;;2.32;64.45
74403;BME280;62837;51.082;13.744;2022-11-20T12:33:51;99764.92;;;2.40;64.64
74403;BME280;62837;51.082;13.744;2022-11-20T12:36:32;99769.64;;;2.40;64.57
74403;BME280;62837;51.082;13.744;2022-11-20T12:39:20;99740.73;;;2.11;64.79
74403;BME280;62837;51.082;13.744;2022-11-20T12:45:14;99770.89;;;2.06;65.52
74403;BME280;62837;51.082;13.744;2022-11-20T12:48:01;99764.52;;;1.92;65.52
74403;BME280;62837;51.082;13.744;2022-11-20T12:50:42;99766.30;;;1.77;65.97
74403;BME280;62837;51.082;13.744;2022-11-20T12:53:43;99767.33;;;1.64;66.36
74403;BME280;62837;51.082;13.744;2022-11-20T12:56:25;99761.98;;;1.55;66.83
74403;BME280;62837;51.082;13.744;2022-11-20T12:59:14;99765.28;;;1.56;67.14
74403;BME280;62837;51.082;13.744;2022-11-20T13:01:52;99763.94;;;1.57;67.63
74403;BME280;62837;51.082;13.744;2022-11-20T13:04:51;99763.70;;;1.55;67.56
74403;BME280;62837;51.082;13.744;2022-11-20T13:07:29;99761.34;;;1.50;67.83
74403;BME280;62837;51.082;13.744;2022-11-20T13:10:02;99762.08;;;1.47;68.26
74403;BME280;62837;51.082;13.744;2022-11-20T13:12:46;99761.17;;;1.44;67.94
74403;BME280;62837;51.082;13.744;2022-11-20T13:15:36;99758.09;;;1.41;68.43
74403;BME280;62837;51.082;13.744;2022-11-20T13:18:11;99756.70;;;1.38;69.19
74403;BME280;62837;51.082;13.744;2022-11-20T13:20:46;99760.27;;;1.34;69.52
74403;BME280;62837;51.082;13.744;2022-11-20T13:23:30;99755.20;;;1.36;69.38
74403;BME280;62837;51.082;13.744;2022-11-20T13:26:16;99747.39;;;1.41;69.43
74403;BME280;62837;51.082;13.744;2022-11-20T13:29:02;99746.15;;;1.47;69.34